Time;durP1;ratioP1;P1;durP2;ratioP2;P2;SDS_P1;SDS_P2;PMS_P1;PMS_P2;Temp;Humidity;BMP_temperature;BMP_pressure;BME280_temperature;BME280_humidity;BME280_pressure;Samples;Min_cycle;Max_cycle;Signal;HPM_P1;HPM_P2
2021/03/29 00:00:56;;;;;;;;;;;12.30;59.20;;;;;;2084575;28;1595;-50
2021/03/29 00:02:16;;;;;;;;;;;12.30;59.70;;;;;;2079642;28;1622;-50
2021/03/29 00:03:35;;;;;;;;;;;12.30;59.30;;;;;;2069574;28;1312;-53
2021/03/29 00:04:54;;;;;;;;;;;12.30;59.20;;;;;;2080006;28;981;-48
2021/03/29 00:06:13;;;;;;;;;;;12.30;59.20;;;;;;2088332;28;1192;-49
2021/03/29 00:07:33;;;;;;;;;;;12.30;59.20;;;;;;2081089;28;752;-48
2021/03/29 00:08:52;;;;;;;;;;;12.30;59.20;;;;;;2088288;28;1943;-53
2021/03/29 00:10:12;;;;;;;;;;;12.30;59.10;;;;;;2080938;28;1861;-49
2021/03/29 00:11:31;;;;;;;;;;;12.30;59.10;;;;;;2076054;28;1657;-50
2021/03/29 00:12:50;;;;;;;;;;;12.30;59.20;;;;;;2072619;28;740;-48
2021/03/29 00:14:09;;;;;;;;;;;12.30;59.60;;;;;;2077473;28;1459;-49
2021/03/29 00:15:29;;;;;;;;;;;12.30;59.10;;;;;;2085353;28;852;-48
2021/03/29 00:16:48;;;;;;;;;;;12.30;59.20;;;;;;2072763;28;980;-50
2021/03/29 00:18:08;;;;;;;;;;;12.30;59.20;;;;;;2082976;28;713;-51
2021/03/29 00:19:28;;;;;;;;;;;12.30;59.20;;;;;;2089418;28;1910;-47
2021/03/29 00:20:47;;;;;;;;;;;12.30;59.20;;;;;;2084827;28;1891;-47
2021/03/29 00:22:06;;;;;;;;;;;12.30;59.30;;;;;;2085677;28;818;-49
2021/03/29 00:23:25;;;;;;;;;;;12.30;59.30;;;;;;2085514;28;1480;-47
2021/03/29 00:24:45;;;;;;;;;;;12.30;59.30;;;;;;2088947;28;764;-47
2021/03/29 00:26:06;;;;;;;;;;;12.30;59.30;;;;;;2088688;28;1868;-49
2021/03/29 00:27:26;;;;;;;;;;;12.30;59.40;;;;;;2086123;28;999;-49
2021/03/29 00:28:45;;;;;;;;;;;12.30;59.90;;;;;;2076360;28;749;-49
2021/03/29 00:30:06;;;;;;;;;;;12.30;59.40;;;;;;2082579;28;705;-49
2021/03/29 00:31:25;;;;;;;;;;;12.30;59.40;;;;;;2077927;28;732;-50
2021/03/29 00:32:44;;;;;;;;;;;12.30;59.40;;;;;;2072581;28;742;-47
2021/03/29 00:34:04;;;;;;;;;;;12.30;59.40;;;;;;2077441;28;1435;-51
2021/03/29 00:35:23;;;;;;;;;;;12.30;59.40;;;;;;2084163;28;1025;-50
2021/03/29 00:36:43;;;;;;;;;;;12.30;59.40;;;;;;2072926;28;1027;-47
2021/03/29 00:38:02;;;;;;;;;;;12.30;59.40;;;;;;2085979;28;735;-49
2021/03/29 00:39:21;;;;;;;;;;;12.30;59.40;;;;;;2088552;28;1906;-49
2021/03/29 00:40:41;;;;;;;;;;;12.30;60.00;;;;;;2085236;28;1669;-49
2021/03/29 00:42:00;;;;;;;;;;;12.30;59.90;;;;;;2094729;28;732;-48
2021/03/29 00:43:21;;;;;;;;;;;12.30;59.40;;;;;;2080528;28;1398;-49
2021/03/29 00:44:40;;;;;;;;;;;12.20;59.40;;;;;;2077865;28;718;-50
2021/03/29 00:46:00;;;;;;;;;;;12.20;59.30;;;;;;2082652;28;780;-51
2021/03/29 00:47:19;;;;;;;;;;;12.20;59.40;;;;;;2085771;28;756;-49
2021/03/29 00:48:38;;;;;;;;;;;12.20;59.30;;;;;;2084165;28;1369;-50
2021/03/29 00:49:58;;;;;;;;;;;12.30;59.40;;;;;;2072134;28;821;-51
2021/03/29 00:51:18;;;;;;;;;;;12.30;59.40;;;;;;2076915;28;1563;-50
2021/03/29 00:52:41;;;;;;;;;;;12.30;59.40;;;;;;2083611;28;734;-49
2021/03/29 00:54:01;;;;;;;;;;;12.30;59.90;;;;;;2086955;28;1364;-48
2021/03/29 00:55:20;;;;;;;;;;;12.20;59.30;;;;;;2086379;28;770;-50
2021/03/29 00:56:39;;;;;;;;;;;12.20;59.30;;;;;;2090615;28;786;-50
2021/03/29 00:57:58;;;;;;;;;;;12.30;59.40;;;;;;2095748;28;714;-48
2021/03/29 00:59:17;;;;;;;;;;;12.20;59.30;;;;;;2099113;28;2119;-46
2021/03/29 01:00:39;;;;;;;;;;;12.20;59.30;;;;;;2087944;28;1730;-51
2021/03/29 01:01:58;;;;;;;;;;;12.20;59.30;;;;;;2087701;28;725;-48
2021/03/29 01:03:18;;;;;;;;;;;12.20;59.30;;;;;;2090982;28;719;-49
2021/03/29 01:04:37;;;;;;;;;;;12.20;59.40;;;;;;2092054;28;1077;-48
2021/03/29 01:05:59;;;;;;;;;;;12.20;59.30;;;;;;2089308;28;1839;-51
2021/03/29 01:07:18;;;;;;;;;;;12.30;59.40;;;;;;2088754;28;1189;-49
2021/03/29 01:08:38;;;;;;;;;;;12.20;59.30;;;;;;2082064;28;808;-51
2021/03/29 01:09:57;;;;;;;;;;;12.20;59.30;;;;;;2078802;28;769;-50
2021/03/29 01:11:22;;;;;;;;;;;12.20;59.30;;;;;;2087989;28;1277;-50
2021/03/29 01:12:40;;;;;;;;;;;12.20;59.40;;;;;;2090642;28;735;-50
2021/03/29 01:14:19;;;;;;;;;;;12.20;59.40;;;;;;2081796;28;1468;-51
2021/03/29 01:15:39;;;;;;;;;;;12.20;59.40;;;;;;2080689;28;1063;-50
2021/03/29 01:16:59;;;;;;;;;;;12.20;59.30;;;;;;2072561;28;1842;-50
2021/03/29 01:18:19;;;;;;;;;;;12.20;59.40;;;;;;2083969;28;757;-53
2021/03/29 01:19:44;;;;;;;;;;;12.20;59.40;;;;;;2078712;28;770;-51
2021/03/29 01:21:23;;;;;;;;;;;12.20;59.30;;;;;;2085239;28;791;-51
2021/03/29 01:22:43;;;;;;;;;;;12.20;59.40;;;;;;2081156;28;752;-50
2021/03/29 01:24:04;;;;;;;;;;;12.20;59.40;;;;;;2075665;28;1297;-49
2021/03/29 01:25:28;;;;;;;;;;;12.20;59.40;;;;;;2083238;28;1965;-51
2021/03/29 01:26:48;;;;;;;;;;;12.20;59.30;;;;;;2086919;28;1653;-49
2021/03/29 01:28:07;;;;;;;;;;;12.20;59.40;;;;;;2087385;28;1601;-52
2021/03/29 01:29:30;;;;;;;;;;;12.20;59.30;;;;;;2081731;28;749;-49
2021/03/29 01:30:50;;;;;;;;;;;12.20;59.30;;;;;;2079154;28;849;-49
2021/03/29 01:32:09;;;;;;;;;;;12.20;59.40;;;;;;2079349;28;1034;-50
2021/03/29 01:33:28;;;;;;;;;;;12.20;59.30;;;;;;2081755;28;1333;-47
2021/03/29 01:34:47;;;;;;;;;;;12.20;59.40;;;;;;2083935;28;1007;-49
2021/03/29 01:36:07;;;;;;;;;;;12.20;59.30;;;;;;2084770;28;1090;-49
2021/03/29 01:37:26;;;;;;;;;;;12.20;59.40;;;;;;2085761;28;1385;-50
2021/03/29 01:38:46;;;;;;;;;;;12.20;59.40;;;;;;2089943;28;1898;-50
2021/03/29 01:40:05;;;;;;;;;;;12.20;59.30;;;;;;2081388;28;792;-51
2021/03/29 01:41:25;;;;;;;;;;;12.20;59.20;;;;;;2091587;28;729;-51
2021/03/29 01:42:44;;;;;;;;;;;12.20;59.30;;;;;;2090052;28;1030;-49
2021/03/29 01:44:03;;;;;;;;;;;12.20;59.30;;;;;;2081975;28;1294;-51
2021/03/29 01:45:22;;;;;;;;;;;12.20;59.30;;;;;;2079837;28;822;-49
2021/03/29 01:46:42;;;;;;;;;;;12.20;59.40;;;;;;2072673;28;754;-51
2021/03/29 01:48:01;;;;;;;;;;;12.20;59.40;;;;;;2078494;28;754;-51
2021/03/29 01:49:21;;;;;;;;;;;12.20;59.40;;;;;;2081717;28;766;-50
2021/03/29 01:50:41;;;;;;;;;;;12.20;59.40;;;;;;2095579;28;740;-50
2021/03/29 01:52:00;;;;;;;;;;;12.20;59.20;;;;;;2098401;28;780;-50
2021/03/29 01:53:19;;;;;;;;;;;12.20;59.20;;;;;;2081658;28;738;-49
2021/03/29 01:54:38;;;;;;;;;;;12.20;59.70;;;;;;2082378;28;739;-51
2021/03/29 01:55:58;;;;;;;;;;;12.20;59.70;;;;;;2088603;28;751;-49
2021/03/29 01:57:17;;;;;;;;;;;12.20;59.80;;;;;;2091331;28;1879;-51
2021/03/29 01:58:36;;;;;;;;;;;12.20;59.30;;;;;;2081482;28;1952;-50
2021/03/29 01:59:55;;;;;;;;;;;12.20;59.30;;;;;;2077732;28;1848;-51
2021/03/29 02:01:14;;;;;;;;;;;12.20;59.30;;;;;;2078045;28;1576;-48
2021/03/29 02:02:34;;;;;;;;;;;12.20;59.30;;;;;;2089847;28;774;-49
2021/03/29 02:03:53;;;;;;;;;;;12.20;59.30;;;;;;2087195;28;1665;-48
2021/03/29 02:05:13;;;;;;;;;;;12.20;59.30;;;;;;2080878;28;1090;-48
2021/03/29 02:06:33;;;;;;;;;;;12.20;59.30;;;;;;2086990;28;968;-48
2021/03/29 02:07:52;;;;;;;;;;;12.20;59.40;;;;;;2088906;28;1591;-48
2021/03/29 02:09:11;;;;;;;;;;;12.20;59.40;;;;;;2080183;28;790;-48
2021/03/29 02:10:31;;;;;;;;;;;12.20;59.40;;;;;;2081679;28;1570;-48
2021/03/29 02:11:51;;;;;;;;;;;12.20;60.00;;;;;;2078442;28;773;-48
2021/03/29 02:13:29;;;;;;;;;;;12.20;59.90;;;;;;2081205;28;2473;-47
2021/03/29 02:14:48;;;;;;;;;;;12.20;59.50;;;;;;2078702;28;1146;-48
2021/03/29 02:16:08;;;;;;;;;;;12.20;59.50;;;;;;2078235;28;1211;-53
2021/03/29 02:17:27;;;;;;;;;;;12.20;59.50;;;;;;2070243;28;1191;-49
2021/03/29 02:18:48;;;;;;;;;;;12.20;59.50;;;;;;2083953;28;1969;-49
2021/03/29 02:20:16;;;;;;;;;;;12.20;59.50;;;;;;2078362;28;783;-48
2021/03/29 02:21:36;;;;;;;;;;;12.20;59.50;;;;;;2095510;28;1553;-48
2021/03/29 02:22:55;;;;;;;;;;;12.10;59.40;;;;;;2089446;28;1836;-48
2021/03/29 02:24:14;;;;;;;;;;;12.20;59.50;;;;;;2089552;28;1327;-48
2021/03/29 02:25:34;;;;;;;;;;;12.20;59.40;;;;;;2088852;28;741;-48
2021/03/29 02:26:53;;;;;;;;;;;12.20;59.40;;;;;;2089668;28;737;-47
2021/03/29 02:28:12;;;;;;;;;;;12.20;59.40;;;;;;2089490;28;813;-47
2021/03/29 02:29:31;;;;;;;;;;;12.20;59.40;;;;;;2081467;28;726;-48
2021/03/29 02:30:50;;;;;;;;;;;12.20;59.40;;;;;;2085525;28;1829;-47
2021/03/29 02:32:09;;;;;;;;;;;12.20;59.40;;;;;;2086608;28;1901;-48
2021/03/29 02:33:28;;;;;;;;;;;12.20;60.00;;;;;;2081275;28;1853;-48
2021/03/29 02:34:48;;;;;;;;;;;12.20;59.50;;;;;;2080380;28;975;-48
2021/03/29 02:36:07;;;;;;;;;;;12.20;59.50;;;;;;2086318;28;1043;-48
2021/03/29 02:37:26;;;;;;;;;;;12.20;59.50;;;;;;2094807;28;1118;-48
2021/03/29 02:38:45;;;;;;;;;;;12.20;59.50;;;;;;2088749;28;1911;-48
2021/03/29 02:40:08;;;;;;;;;;;12.10;59.40;;;;;;2092774;28;746;-48
2021/03/29 02:41:28;;;;;;;;;;;12.10;59.50;;;;;;2083910;28;1849;-48
2021/03/29 02:42:47;;;;;;;;;;;12.20;59.50;;;;;;2077412;28;778;-48
2021/03/29 02:44:07;;;;;;;;;;;12.10;59.50;;;;;;2084841;28;1440;-48
2021/03/29 02:45:27;;;;;;;;;;;12.10;59.50;;;;;;2088365;28;749;-47
2021/03/29 02:46:47;;;;;;;;;;;12.10;60.10;;;;;;2079477;28;844;-49
2021/03/29 02:48:07;;;;;;;;;;;12.10;59.50;;;;;;2072904;28;945;-47
2021/03/29 02:49:27;;;;;;;;;;;12.10;59.50;;;;;;2075145;28;1561;-46
2021/03/29 02:50:47;;;;;;;;;;;12.10;59.50;;;;;;2077677;28;1563;-47
2021/03/29 02:52:07;;;;;;;;;;;12.10;59.50;;;;;;2064874;28;768;-48
2021/03/29 02:53:29;;;;;;;;;;;12.10;59.50;;;;;;2066654;28;1431;-49
2021/03/29 02:54:49;;;;;;;;;;;12.10;59.50;;;;;;2062013;28;947;-48
2021/03/29 02:56:09;;;;;;;;;;;12.10;60.10;;;;;;2061842;28;738;-48
2021/03/29 02:57:28;;;;;;;;;;;12.10;59.50;;;;;;2070011;28;832;-49
2021/03/29 02:58:52;;;;;;;;;;;12.10;59.50;;;;;;2078375;28;1975;-48
2021/03/29 03:00:12;;;;;;;;;;;12.10;59.50;;;;;;2065067;28;781;-46
2021/03/29 03:01:32;;;;;;;;;;;12.10;59.50;;;;;;2078374;28;1805;-48
2021/03/29 03:02:52;;;;;;;;;;;12.10;59.50;;;;;;2094891;28;799;-49
2021/03/29 03:04:12;;;;;;;;;;;12.10;59.50;;;;;;2086010;28;1369;-48
2021/03/29 03:05:32;;;;;;;;;;;12.10;59.50;;;;;;2072521;28;1067;-48
2021/03/29 03:06:51;;;;;;;;;;;12.10;59.50;;;;;;2080086;28;1597;-48
2021/03/29 03:08:11;;;;;;;;;;;12.10;59.50;;;;;;2077548;28;806;-49
2021/03/29 03:09:30;;;;;;;;;;;12.10;59.50;;;;;;2091402;28;790;-48
2021/03/29 03:10:49;;;;;;;;;;;12.10;59.50;;;;;;2081009;28;1457;-48
2021/03/29 03:12:08;;;;;;;;;;;12.10;59.50;;;;;;2066373;28;761;-48
2021/03/29 03:13:27;;;;;;;;;;;12.10;59.50;;;;;;2069554;28;1303;-48
2021/03/29 03:14:47;;;;;;;;;;;12.10;59.50;;;;;;2064733;28;715;-47
2021/03/29 03:16:06;;;;;;;;;;;12.10;59.50;;;;;;2074385;28;945;-48
2021/03/29 03:17:25;;;;;;;;;;;12.10;59.60;;;;;;2064928;28;774;-47
2021/03/29 03:18:46;;;;;;;;;;;12.10;59.60;;;;;;2084557;28;1914;-47
2021/03/29 03:20:09;;;;;;;;;;;12.10;59.60;;;;;;2089720;28;737;-48
2021/03/29 03:21:28;;;;;;;;;;;12.10;59.60;;;;;;2085723;28;1580;-48
2021/03/29 03:22:49;;;;;;;;;;;12.10;59.60;;;;;;2080754;28;805;-48
2021/03/29 03:24:08;;;;;;;;;;;12.10;59.60;;;;;;2085901;28;1443;-48
2021/03/29 03:25:31;;;;;;;;;;;12.10;59.60;;;;;;2094077;28;724;-48
2021/03/29 03:26:50;;;;;;;;;;;12.10;59.70;;;;;;2089074;28;1941;-48
2021/03/29 03:28:10;;;;;;;;;;;12.10;60.20;;;;;;2085982;28;787;-48
2021/03/29 03:29:30;;;;;;;;;;;12.10;59.60;;;;;;2094953;28;730;-47
2021/03/29 03:30:51;;;;;;;;;;;12.10;59.60;;;;;;2089019;28;775;-47
2021/03/29 03:32:12;;;;;;;;;;;12.10;59.60;;;;;;2078399;28;719;-47
2021/03/29 03:33:31;;;;;;;;;;;12.10;59.60;;;;;;2084131;28;1798;-47
2021/03/29 03:34:50;;;;;;;;;;;12.10;59.60;;;;;;2081500;28;1002;-47
2021/03/29 03:36:10;;;;;;;;;;;12.10;59.60;;;;;;2088864;28;1066;-47
2021/03/29 03:37:29;;;;;;;;;;;12.10;59.60;;;;;;2080764;28;726;-47
2021/03/29 03:38:48;;;;;;;;;;;12.10;59.70;;;;;;2081886;28;1957;-46
2021/03/29 03:40:08;;;;;;;;;;;12.10;59.70;;;;;;2089256;28;758;-46
2021/03/29 03:41:31;;;;;;;;;;;12.10;59.60;;;;;;2085039;28;1525;-48
2021/03/29 03:42:52;;;;;;;;;;;12.10;59.60;;;;;;2080871;28;814;-48
2021/03/29 03:44:11;;;;;;;;;;;12.10;59.60;;;;;;2077847;28;1396;-48
2021/03/29 03:45:34;;;;;;;;;;;12.10;59.70;;;;;;2085594;28;792;-48
2021/03/29 03:46:53;;;;;;;;;;;12.10;59.60;;;;;;2080868;28;938;-48
2021/03/29 03:48:13;;;;;;;;;;;12.10;60.10;;;;;;2077811;28;829;-47
2021/03/29 03:49:32;;;;;;;;;;;12.10;59.70;;;;;;2080880;28;808;-48
2021/03/29 03:50:51;;;;;;;;;;;12.10;59.70;;;;;;2072723;28;850;-48
2021/03/29 03:52:11;;;;;;;;;;;12.10;59.60;;;;;;2069582;28;773;-47
2021/03/29 03:53:30;;;;;;;;;;;12.10;59.60;;;;;;2075116;28;1401;-48
2021/03/29 03:54:50;;;;;;;;;;;12.10;59.70;;;;;;2075960;28;1910;-46
2021/03/29 03:56:09;;;;;;;;;;;12.10;59.80;;;;;;2082062;28;1565;-47
2021/03/29 03:57:28;;;;;;;;;;;12.10;59.70;;;;;;2087850;28;1345;-46
2021/03/29 03:58:47;;;;;;;;;;;12.10;59.80;;;;;;2081266;28;1910;-46
2021/03/29 04:00:08;;;;;;;;;;;12.00;59.70;;;;;;2079862;28;1399;-48
2021/03/29 04:01:32;;;;;;;;;;;12.00;59.70;;;;;;2087848;28;1281;-47
2021/03/29 04:02:52;;;;;;;;;;;12.00;59.70;;;;;;2072261;28;1364;-47
2021/03/29 04:04:11;;;;;;;;;;;12.10;59.70;;;;;;2076046;28;1463;-48
2021/03/29 04:05:30;;;;;;;;;;;12.10;59.70;;;;;;2082933;28;1245;-48
2021/03/29 04:06:50;;;;;;;;;;;12.10;59.70;;;;;;2080372;28;1419;-48
2021/03/29 04:08:10;;;;;;;;;;;12.00;59.70;;;;;;2085024;28;1227;-48
2021/03/29 04:09:40;;;;;;;;;;;12.10;59.70;;;;;;2080367;28;1346;-48
2021/03/29 04:11:00;;;;;;;;;;;12.10;59.70;;;;;;2087218;28;1460;-48
2021/03/29 04:12:19;;;;;;;;;;;12.00;59.70;;;;;;2087820;28;1133;-48
2021/03/29 04:13:38;;;;;;;;;;;12.10;59.80;;;;;;2088572;28;1526;-48
2021/03/29 04:14:57;;;;;;;;;;;12.10;59.80;;;;;;2088765;28;1254;-48
2021/03/29 04:16:16;;;;;;;;;;;12.10;59.80;;;;;;2078571;28;1122;-48
2021/03/29 04:17:36;;;;;;;;;;;12.10;59.80;;;;;;2076387;28;1371;-48
2021/03/29 04:18:55;;;;;;;;;;;12.10;59.80;;;;;;2084890;28;1906;-47
2021/03/29 04:20:14;;;;;;;;;;;12.00;60.30;;;;;;2087053;28;1307;-47
2021/03/29 04:21:33;;;;;;;;;;;12.00;59.70;;;;;;2071829;28;2067;-48
2021/03/29 04:22:52;;;;;;;;;;;12.00;59.70;;;;;;2072692;28;1424;-47
2021/03/29 04:24:12;;;;;;;;;;;12.00;59.70;;;;;;2076834;28;1538;-47
2021/03/29 04:25:31;;;;;;;;;;;12.00;59.80;;;;;;2082924;28;1332;-46
2021/03/29 04:26:50;;;;;;;;;;;12.00;59.80;;;;;;2078621;28;1307;-47
2021/03/29 04:28:09;;;;;;;;;;;12.00;59.80;;;;;;2086805;28;1309;-47
2021/03/29 04:29:29;;;;;;;;;;;12.00;59.80;;;;;;2081954;28;1244;-46
2021/03/29 04:30:48;;;;;;;;;;;12.00;59.80;;;;;;2079747;28;1442;-47
2021/03/29 04:32:08;;;;;;;;;;;12.00;59.80;;;;;;2086343;28;1187;-46
2021/03/29 04:33:27;;;;;;;;;;;12.00;59.80;;;;;;2090394;28;1466;-46
2021/03/29 04:34:46;;;;;;;;;;;12.00;59.80;;;;;;2090280;28;1196;-47
2021/03/29 04:36:05;;;;;;;;;;;12.00;59.80;;;;;;2090886;28;1311;-47
2021/03/29 04:37:24;;;;;;;;;;;12.00;59.80;;;;;;2082634;28;1250;-46
2021/03/29 04:38:44;;;;;;;;;;;12.00;59.80;;;;;;2076346;28;1968;-46
2021/03/29 04:40:03;;;;;;;;;;;12.00;59.80;;;;;;2084100;28;1236;-46
2021/03/29 04:41:23;;;;;;;;;;;12.00;59.80;;;;;;2087357;28;1228;-47
2021/03/29 04:42:42;;;;;;;;;;;12.00;59.80;;;;;;2090674;28;1201;-46
2021/03/29 04:44:02;;;;;;;;;;;12.00;59.80;;;;;;2089321;28;1394;-47
2021/03/29 04:45:21;;;;;;;;;;;12.00;59.80;;;;;;2088664;28;1263;-47
2021/03/29 04:46:40;;;;;;;;;;;12.00;59.80;;;;;;2081384;28;1331;-46
2021/03/29 04:47:59;;;;;;;;;;;12.00;59.80;;;;;;2078438;28;1333;-47
2021/03/29 04:49:18;;;;;;;;;;;12.00;59.80;;;;;;2078592;28;1225;-46
2021/03/29 04:50:38;;;;;;;;;;;12.00;59.80;;;;;;2087273;28;1400;-47
2021/03/29 04:51:57;;;;;;;;;;;12.00;59.80;;;;;;2090721;28;1144;-46
2021/03/29 04:53:16;;;;;;;;;;;12.00;59.80;;;;;;2081763;28;1297;-48
2021/03/29 04:54:35;;;;;;;;;;;12.00;59.80;;;;;;2080990;28;1240;-47
2021/03/29 04:55:54;;;;;;;;;;;12.00;59.90;;;;;;2067597;28;1330;-46
2021/03/29 04:57:14;;;;;;;;;;;12.00;59.90;;;;;;2081396;28;1319;-47
2021/03/29 04:58:33;;;;;;;;;;;12.00;59.90;;;;;;2089242;28;1217;-47
2021/03/29 04:59:52;;;;;;;;;;;12.00;59.90;;;;;;2090832;28;1243;-46
2021/03/29 05:01:11;;;;;;;;;;;12.00;59.90;;;;;;2090731;28;1341;-45
2021/03/29 05:02:31;;;;;;;;;;;12.00;60.00;;;;;;2081669;28;1413;-47
2021/03/29 05:03:50;;;;;;;;;;;12.00;60.00;;;;;;2083480;28;1445;-46
2021/03/29 05:05:10;;;;;;;;;;;12.00;60.00;;;;;;2086153;28;1225;-47
2021/03/29 05:06:29;;;;;;;;;;;12.00;60.00;;;;;;2090614;28;1370;-46
2021/03/29 05:07:49;;;;;;;;;;;12.00;60.00;;;;;;2083844;28;1157;-46
2021/03/29 05:09:08;;;;;;;;;;;12.00;60.10;;;;;;2078203;28;1430;-46
2021/03/29 05:10:27;;;;;;;;;;;12.00;59.90;;;;;;2078598;28;1213;-47
2021/03/29 05:11:50;;;;;;;;;;;12.00;59.60;;;;;;2087424;28;1456;-46
2021/03/29 05:13:09;;;;;;;;;;;12.00;60.90;;;;;;2091395;28;1258;-47
2021/03/29 05:14:29;;;;;;;;;;;12.10;60.30;;;;;;2081398;28;1311;-54
2021/03/29 05:15:48;;;;;;;;;;;12.10;60.00;;;;;;2085611;28;1476;-47
2021/03/29 05:17:07;;;;;;;;;;;12.00;59.80;;;;;;2090551;28;1317;-47
2021/03/29 05:18:26;;;;;;;;;;;12.00;59.80;;;;;;2090358;28;1271;-48
2021/03/29 05:19:45;;;;;;;;;;;12.00;59.90;;;;;;2090708;28;1130;-48
2021/03/29 05:21:05;;;;;;;;;;;12.00;59.80;;;;;;2082067;28;1364;-48
2021/03/29 05:22:24;;;;;;;;;;;12.00;59.90;;;;;;2087754;28;1214;-48
2021/03/29 05:23:43;;;;;;;;;;;12.00;60.00;;;;;;2085092;28;1519;-48
2021/03/29 05:25:03;;;;;;;;;;;12.00;60.20;;;;;;2085407;28;1509;-48
2021/03/29 05:26:21;;;;;;;;;;;12.00;60.20;;;;;;2089929;28;1468;-49
2021/03/29 05:27:40;;;;;;;;;;;12.00;60.50;;;;;;2090129;28;1319;-51
2021/03/29 05:29:00;;;;;;;;;;;12.10;61.00;;;;;;2081700;28;1287;-48
2021/03/29 05:30:19;;;;;;;;;;;12.10;61.10;;;;;;2087412;28;1347;-48
2021/03/29 05:31:41;;;;;;;;;;;12.10;61.00;;;;;;2089988;28;1398;-48
2021/03/29 05:33:01;;;;;;;;;;;12.20;60.70;;;;;;2082289;28;1336;-49
2021/03/29 05:34:21;;;;;;;;;;;12.20;60.40;;;;;;2087877;28;1465;-45
2021/03/29 05:35:40;;;;;;;;;;;12.30;60.20;;;;;;2089213;28;1406;-49
2021/03/29 05:36:59;;;;;;;;;;;12.40;59.90;;;;;;2091057;28;1471;-48
2021/03/29 05:38:18;;;;;;;;;;;12.40;59.70;;;;;;2090091;28;1194;-48
2021/03/29 05:39:37;;;;;;;;;;;12.50;59.50;;;;;;2088706;28;1968;-47
2021/03/29 05:40:57;;;;;;;;;;;12.50;59.70;;;;;;2091577;28;1529;-49
2021/03/29 05:42:16;;;;;;;;;;;12.60;59.50;;;;;;2088940;28;1199;-48
2021/03/29 05:43:35;;;;;;;;;;;12.70;58.80;;;;;;2089536;28;1384;-48
2021/03/29 05:45:21;;;;;;;;;;;12.70;58.40;;;;;;2080352;28;1370;-48
2021/03/29 05:46:40;;;;;;;;;;;12.80;58.30;;;;;;2073995;28;1434;-47
2021/03/29 05:47:59;;;;;;;;;;;12.90;58.60;;;;;;2084934;28;1416;-48
2021/03/29 05:49:18;;;;;;;;;;;12.90;57.80;;;;;;2090701;28;1405;-48
2021/03/29 05:50:37;;;;;;;;;;;13.00;57.70;;;;;;2091211;28;1325;-48
2021/03/29 05:51:57;;;;;;;;;;;13.10;57.50;;;;;;2081134;28;1377;-50
2021/03/29 05:53:17;;;;;;;;;;;13.10;57.30;;;;;;2087066;28;1239;-48
2021/03/29 05:54:38;;;;;;;;;;;13.10;57.10;;;;;;2090876;28;1572;-49
2021/03/29 05:56:01;;;;;;;;;;;13.20;56.90;;;;;;2090528;28;1427;-48
2021/03/29 05:57:20;;;;;;;;;;;13.30;56.80;;;;;;2090956;28;1094;-48
2021/03/29 05:58:44;;;;;;;;;;;13.40;56.60;;;;;;2090244;28;1443;-48
2021/03/29 06:00:22;;;;;;;;;;;13.40;56.50;;;;;;2083422;28;1496;-48
2021/03/29 06:01:42;;;;;;;;;;;13.50;56.30;;;;;;2090731;28;1277;-48
2021/03/29 06:03:20;;;;;;;;;;;13.60;56.10;;;;;;2090190;28;1326;-48
2021/03/29 06:04:46;;;;;;;;;;;13.60;55.90;;;;;;2090049;28;1113;-48
2021/03/29 06:06:11;;;;;;;;;;;13.80;55.80;;;;;;2077241;28;1450;-48
2021/03/29 06:07:31;;;;;;;;;;;13.80;55.60;;;;;;2083342;28;1175;-48
2021/03/29 06:08:52;;;;;;;;;;;13.90;55.50;;;;;;2088398;28;1217;-49
2021/03/29 06:10:11;;;;;;;;;;;13.90;55.20;;;;;;2082412;28;1242;-49
2021/03/29 06:11:32;;;;;;;;;;;14.00;55.20;;;;;;2078595;28;1692;-48
2021/03/29 06:12:54;;;;;;;;;;;14.00;55.50;;;;;;2085272;28;1701;-50
2021/03/29 06:14:17;;;;;;;;;;;14.10;55.50;;;;;;2091987;28;1540;-48
2021/03/29 06:15:36;;;;;;;;;;;14.10;55.50;;;;;;2081467;28;1277;-48
2021/03/29 06:16:56;;;;;;;;;;;14.20;55.40;;;;;;2085637;28;1329;-49
2021/03/29 06:18:16;;;;;;;;;;;14.10;55.30;;;;;;2087432;28;1212;-48
2021/03/29 06:19:35;;;;;;;;;;;14.10;55.50;;;;;;2091438;28;1906;-47
2021/03/29 06:21:01;;;;;;;;;;;14.20;55.50;;;;;;2089477;28;1593;-51
2021/03/29 06:22:24;;;;;;;;;;;14.20;55.40;;;;;;2091799;28;1232;-48
2021/03/29 06:23:55;;;;;;;;;;;14.20;55.90;;;;;;2082325;28;1496;-46
2021/03/29 06:25:18;;;;;;;;;;;14.20;55.30;;;;;;2088853;28;1376;-48
2021/03/29 06:26:37;;;;;;;;;;;14.30;55.30;;;;;;2090978;28;1311;-48
2021/03/29 06:27:57;;;;;;;;;;;14.30;55.30;;;;;;2090907;28;1508;-48
2021/03/29 06:29:17;;;;;;;;;;;14.30;55.20;;;;;;2090040;28;1229;-48
2021/03/29 06:30:36;;;;;;;;;;;14.30;55.10;;;;;;2091859;28;1447;-48
2021/03/29 06:31:57;;;;;;;;;;;14.40;55.10;;;;;;2080165;28;1298;-50
2021/03/29 06:33:16;;;;;;;;;;;14.40;55.00;;;;;;2080099;28;1272;-50
2021/03/29 06:34:35;;;;;;;;;;;14.40;55.50;;;;;;2078508;28;1218;-51
2021/03/29 06:35:55;;;;;;;;;;;14.50;55.50;;;;;;2086492;28;1222;-50
2021/03/29 06:37:18;;;;;;;;;;;14.50;55.00;;;;;;2091789;28;1474;-51
2021/03/29 06:38:37;;;;;;;;;;;14.50;55.00;;;;;;2091594;28;1430;-49
2021/03/29 06:39:56;;;;;;;;;;;14.50;54.90;;;;;;2072014;28;1321;-51
2021/03/29 06:41:15;;;;;;;;;;;14.50;54.90;;;;;;2074926;28;1579;-49
2021/03/29 06:42:35;;;;;;;;;;;14.50;55.00;;;;;;2078419;28;1447;-50
2021/03/29 06:43:54;;;;;;;;;;;14.50;55.00;;;;;;2075216;28;1776;-50
2021/03/29 06:45:14;;;;;;;;;;;14.50;55.00;;;;;;2087200;28;1564;-46
2021/03/29 06:46:33;;;;;;;;;;;14.50;55.10;;;;;;2084137;28;1371;-49
2021/03/29 06:47:53;;;;;;;;;;;14.50;55.10;;;;;;2079811;28;1206;-51
2021/03/29 06:49:12;;;;;;;;;;;14.40;55.60;;;;;;2083151;28;1937;-49
2021/03/29 06:50:31;;;;;;;;;;;14.50;55.30;;;;;;2085820;28;1444;-50
2021/03/29 06:51:51;;;;;;;;;;;14.40;55.30;;;;;;2087873;28;1148;-49
2021/03/29 06:53:10;;;;;;;;;;;14.40;55.40;;;;;;2091385;28;1335;-51
2021/03/29 06:54:29;;;;;;;;;;;14.40;55.40;;;;;;2091613;28;1109;-52
2021/03/29 06:55:48;;;;;;;;;;;14.40;55.50;;;;;;2090062;28;1407;-52
2021/03/29 06:57:08;;;;;;;;;;;14.40;55.60;;;;;;2091512;28;1187;-50
2021/03/29 06:58:27;;;;;;;;;;;14.40;55.70;;;;;;2083043;28;1671;-52
2021/03/29 06:59:46;;;;;;;;;;;14.30;56.20;;;;;;2086465;28;1989;-50
2021/03/29 07:01:05;;;;;;;;;;;14.30;55.80;;;;;;2080847;28;1711;-51
2021/03/29 07:02:37;;;;;;;;;;;14.30;55.90;;;;;;2088295;28;1402;-50
2021/03/29 07:03:56;;;;;;;;;;;14.30;56.10;;;;;;2074536;28;1464;-47
2021/03/29 07:05:16;;;;;;;;;;;14.20;56.30;;;;;;2077290;28;1286;-53
2021/03/29 07:06:35;;;;;;;;;;;14.20;56.50;;;;;;2086759;28;1262;-49
2021/03/29 07:07:54;;;;;;;;;;;14.20;56.60;;;;;;2074426;28;1224;-51
2021/03/29 07:09:13;;;;;;;;;;;14.20;57.20;;;;;;2076996;28;1646;-49
2021/03/29 07:10:32;;;;;;;;;;;14.20;57.20;;;;;;2075531;28;1387;-48
2021/03/29 07:11:52;;;;;;;;;;;14.10;56.60;;;;;;2084802;28;1365;-48
2021/03/29 07:13:11;;;;;;;;;;;14.10;56.60;;;;;;2080061;28;1256;-51
2021/03/29 07:14:30;;;;;;;;;;;14.10;56.70;;;;;;2075660;28;1335;-48
2021/03/29 07:15:50;;;;;;;;;;;14.10;56.70;;;;;;2080175;28;1328;-51
2021/03/29 07:17:09;;;;;;;;;;;14.10;56.70;;;;;;2079325;28;1369;-52
2021/03/29 07:18:28;;;;;;;;;;;14.10;56.70;;;;;;2077207;28;1579;-52
2021/03/29 07:19:49;;;;;;;;;;;14.10;56.80;;;;;;2067571;28;1373;-52
2021/03/29 07:21:09;;;;;;;;;;;14.10;56.80;;;;;;2075884;28;1273;-49
2021/03/29 07:22:28;;;;;;;;;;;14.10;56.80;;;;;;2086793;28;1384;-49
2021/03/29 07:23:47;;;;;;;;;;;14.10;56.90;;;;;;2079746;28;1512;-51
2021/03/29 07:25:10;;;;;;;;;;;14.10;57.00;;;;;;2079087;28;1411;-47
2021/03/29 07:26:38;;;;;;;;;;;14.10;57.50;;;;;;2086692;28;1452;-51
2021/03/29 07:27:59;;;;;;;;;;;14.10;57.00;;;;;;2080255;28;1278;-51
2021/03/29 07:29:18;;;;;;;;;;;14.00;57.00;;;;;;2090503;28;1620;-50
2021/03/29 07:30:47;;;;;;;;;;;14.00;57.10;;;;;;2088958;28;1482;-52
2021/03/29 07:32:25;;;;;;;;;;;14.00;57.20;;;;;;2090133;28;1308;-49
2021/03/29 07:33:51;;;;;;;;;;;14.00;57.20;;;;;;2072978;28;1423;-49
2021/03/29 07:35:10;;;;;;;;;;;14.00;57.30;;;;;;2084933;28;1279;-51
2021/03/29 07:36:37;;;;;;;;;;;14.00;57.40;;;;;;2081313;28;1589;-51
2021/03/29 07:37:57;;;;;;;;;;;14.00;57.40;;;;;;2086482;28;1449;-50
2021/03/29 07:39:36;;;;;;;;;;;14.00;57.50;;;;;;2081656;28;1891;-55
2021/03/29 07:40:56;;;;;;;;;;;14.00;57.50;;;;;;2088329;28;1323;-49
2021/03/29 07:42:25;;;;;;;;;;;13.90;57.50;;;;;;2090456;28;1203;-50
2021/03/29 07:44:04;;;;;;;;;;;13.90;57.60;;;;;;2089779;28;1411;-52
2021/03/29 07:45:24;;;;;;;;;;;13.90;57.60;;;;;;2089144;28;1291;-49
2021/03/29 07:46:47;;;;;;;;;;;13.90;58.20;;;;;;2090618;28;1225;-48
2021/03/29 07:48:06;;;;;;;;;;;13.90;58.20;;;;;;2089023;28;1337;-52
2021/03/29 07:49:42;;;;;;;;;;;13.90;57.70;;;;;;2090899;28;1323;-49
2021/03/29 07:51:02;;;;;;;;;;;13.90;57.70;;;;;;2082155;28;1513;-50
2021/03/29 07:52:28;;;;;;;;;;;13.90;57.80;;;;;;2086679;28;1267;-50
2021/03/29 07:53:49;;;;;;;;;;;13.90;57.80;;;;;;2081079;28;1448;-51
2021/03/29 07:55:17;;;;;;;;;;;13.90;57.90;;;;;;2075721;28;1482;-52
2021/03/29 07:56:38;;;;;;;;;;;13.90;57.90;;;;;;2083874;28;1227;-52
2021/03/29 07:57:58;;;;;;;;;;;13.90;58.00;;;;;;2080171;28;1267;-51